Time;durP1;ratioP1;P1;durP2;ratioP2;P2;SDS_P1;SDS_P2;PMS_P1;PMS_P2;Temp;Humidity;BMP_temperature;BMP_pressure;BME280_temperature;BME280_humidity;BME280_pressure;Samples;Min_cycle;Max_cycle;Signal;HPM_P1;HPM_P2
2022/10/10 00:01:31;;;;;;;0.40;0.30;;;;;;;16.01;74.73;96073.81;5133887;27;20813;-56
2022/10/10 00:04:01;;;;;;;0.70;0.30;;;;;;;15.90;75.15;96062.44;5133891;27;20433;-56
2022/10/10 00:06:30;;;;;;;0.40;0.30;;;;;;;16.01;75.58;96060.44;5133464;27;20442;-56
2022/10/10 00:09:01;;;;;;;0.40;0.20;;;;;;;16.08;75.83;96064.38;5134065;27;20499;-56
2022/10/10 00:11:31;;;;;;;6.07;0.40;;;;;;;15.96;75.18;96074.69;5133720;27;20425;-56
2022/10/10 00:14:00;;;;;;;0.40;0.30;;;;;;;16.02;75.63;96067.38;5133781;27;21058;-56
2022/10/10 00:16:28;;;;;;;0.40;0.30;;;;;;;15.98;75.00;96075.19;5133598;27;20497;-56
2022/10/10 00:18:56;;;;;;;0.40;0.20;;;;;;;15.76;75.75;96073.00;5133586;27;20426;-56
2022/10/10 00:21:25;;;;;;;0.60;0.40;;;;;;;15.07;78.52;96080.53;5132943;27;20426;-56
2022/10/10 00:23:53;;;;;;;0.60;0.50;;;;;;;15.32;79.12;96083.00;5132928;27;20473;-56
2022/10/10 00:26:21;;;;;;;0.40;0.33;;;;;;;15.36;77.61;96084.03;5133746;27;20437;-56
2022/10/10 00:28:51;;;;;;;0.40;0.30;;;;;;;15.56;76.60;96077.75;5133096;27;20438;-56
2022/10/10 00:31:19;;;;;;;0.40;0.20;;;;;;;15.87;76.06;96076.34;5133357;27;20436;-56
2022/10/10 00:33:48;;;;;;;0.50;0.30;;;;;;;15.14;78.88;96081.81;5133025;27;20430;-56
2022/10/10 00:36:19;;;;;;;0.60;0.30;;;;;;;14.91;82.37;96082.50;5133163;27;20980;-56
2022/10/10 00:38:47;;;;;;;1.23;1.20;;;;;;;14.14;86.56;96088.47;5132972;27;20440;-56
2022/10/10 00:41:16;;;;;;;0.73;0.73;;;;;;;13.38;100.00;96088.66;5132895;27;20417;-56
2022/10/10 00:43:59;;;;;;;0.50;0.40;;;;;;;13.29;100.00;96087.59;5132691;27;20441;-56
2022/10/10 00:46:28;;;;;;;1.77;0.90;;;;;;;13.68;100.00;96090.50;5133191;27;20420;-56
2022/10/10 00:48:57;;;;;;;0.50;0.43;;;;;;;14.25;97.29;96094.56;5133068;27;20453;-56
2022/10/10 00:51:25;;;;;;;0.50;0.40;;;;;;;14.51;94.04;96088.91;5132739;27;20422;-56
2022/10/10 00:53:58;;;;;;;0.50;0.40;;;;;;;14.31;94.03;96082.84;5132963;27;20437;-56
2022/10/10 00:56:31;;;;;;;0.40;0.30;;;;;;;13.30;96.58;95941.97;5132989;27;20461;-56
2022/10/10 00:59:04;;;;;;;0.50;0.40;;;;;;;14.36;94.42;96098.84;5133028;27;20430;-56
2022/10/10 01:01:34;;;;;;;1.93;1.00;;;;;;;14.77;89.33;96096.75;5132550;27;20433;-56
2022/10/10 01:04:03;;;;;;;0.50;0.40;;;;;;;14.81;89.41;96087.91;5132507;27;20444;-56
2022/10/10 01:06:32;;;;;;;0.50;0.30;;;;;;;14.98;87.43;96091.00;5132653;27;20918;-56
2022/10/10 01:09:01;;;;;;;0.70;0.67;;;;;;;15.05;87.67;96086.13;5132886;27;20869;-56
2022/10/10 01:11:44;;;;;;;0.50;0.50;;;;;;;15.12;86.39;96096.53;5130849;27;20417;-56
2022/10/10 01:14:23;;;;;;;0.40;0.30;;;;;;;14.58;85.50;96091.25;5132731;27;20449;-56
2022/10/10 01:17:02;;;;;;;0.60;0.30;;;;;;;14.75;87.76;96091.69;5132706;27;20991;-56
2022/10/10 01:19:58;;;;;;;0.40;0.40;;;;;;;14.58;89.70;96096.59;5132553;27;20430;-56
2022/10/10 01:22:34;;;;;;;1.03;1.03;;;;;;;14.71;91.14;96097.84;5132150;27;20940;-56
2022/10/10 01:25:17;;;;;;;0.60;0.50;;;;;;;14.87;88.51;96092.16;5132321;27;20575;-56
2022/10/10 01:27:51;;;;;;;0.60;0.60;;;;;;;15.00;86.02;96099.53;5132422;27;20439;-56
2022/10/10 01:30:23;;;;;;;0.97;0.97;;;;;;;14.94;85.10;96076.63;5132476;27;20426;-56
2022/10/10 01:32:55;;;;;;;1.00;1.00;;;;;;;14.92;84.56;96089.47;5132670;27;20444;-56
2022/10/10 01:35:32;;;;;;;0.60;0.53;;;;;;;14.98;85.45;96093.66;5132082;27;20440;-56
2022/10/10 01:38:11;;;;;;;0.57;0.33;;;;;;;14.93;83.65;96091.03;5132222;27;20473;-56
2022/10/10 01:40:47;;;;;;;0.40;0.30;;;;;;;15.07;82.84;96099.22;5132588;27;20432;-56
2022/10/10 01:43:17;;;;;;;1.13;0.70;;;;;;;15.14;82.81;96097.03;5132584;27;20436;-56
2022/10/10 01:45:49;;;;;;;0.50;0.30;;;;;;;15.15;83.49;96094.06;5132280;27;20437;-56
2022/10/10 01:48:20;;;;;;;0.73;0.50;;;;;;;15.28;84.31;96093.44;5133524;27;20436;-56
2022/10/10 01:51:09;;;;;;;0.40;0.30;;;;;;;15.20;82.03;96106.63;5135966;27;20441;-56
2022/10/10 01:53:43;;;;;;;0.60;0.50;;;;;;;15.06;82.63;96105.63;5136467;27;20434;-56
2022/10/10 01:56:22;;;;;;;0.50;0.30;;;;;;;14.96;82.17;96108.38;5136151;27;20951;-56
2022/10/10 01:59:06;;;;;;;0.50;0.30;;;;;;;15.16;82.76;96106.34;5135841;27;20425;-56
2022/10/10 02:01:45;;;;;;;0.50;0.30;;;;;;;15.22;81.59;96110.59;5136252;27;20931;-56
2022/10/10 02:04:19;;;;;;;0.50;0.40;;;;;;;15.22;82.34;96105.25;5136099;27;21121;-56
2022/10/10 02:06:54;;;;;;;0.50;0.40;;;;;;;15.11;81.77;96102.94;5136096;27;20433;-56
2022/10/10 02:09:34;;;;;;;0.40;0.30;;;;;;;15.21;81.88;96100.97;5136004;27;20436;-56
2022/10/10 02:12:05;;;;;;;1.00;0.73;;;;;;;14.80;82.47;96107.66;5135842;27;20436;-56
2022/10/10 02:14:39;;;;;;;0.60;0.50;;;;;;;13.90;88.81;96109.63;5135889;27;20425;-56
2022/10/10 02:17:12;;;;;;;3.40;0.57;;;;;;;14.29;93.26;96099.13;5135585;27;20458;-56
2022/10/10 02:19:44;;;;;;;0.40;0.30;;;;;;;14.68;89.62;96112.53;5135765;27;20890;-56
2022/10/10 02:22:14;;;;;;;0.60;0.50;;;;;;;13.62;88.82;95936.25;5135960;27;20425;-56
2022/10/10 02:24:43;;;;;;;0.60;0.50;;;;;;;14.86;87.10;96114.56;5134773;27;20474;-56
2022/10/10 02:27:18;;;;;;;0.40;0.30;;;;;;;15.09;86.50;96115.75;5135648;27;20425;-56
2022/10/10 02:29:49;;;;;;;0.40;0.40;;;;;;;14.92;83.07;96120.69;5135651;27;20428;-56
2022/10/10 02:32:24;;;;;;;0.57;0.40;;;;;;;14.90;83.76;96117.50;5135400;27;20426;-55
2022/10/10 02:34:57;;;;;;;0.83;0.77;;;;;;;14.90;82.40;96123.63;5135578;27;20437;-55
2022/10/10 02:37:27;;;;;;;0.57;0.57;;;;;;;14.93;82.54;96128.41;5135396;27;20565;-55
2022/10/10 02:40:01;;;;;;;0.60;0.40;;;;;;;14.99;82.18;96121.97;5135210;27;20430;-55
2022/10/10 02:42:30;;;;;;;1.33;1.10;;;;;;;15.01;81.34;96127.81;5135201;27;20432;-56
2022/10/10 02:44:58;;;;;;;0.40;0.30;;;;;;;14.90;80.55;96123.63;5135124;27;20439;-56
2022/10/10 02:47:28;;;;;;;0.60;0.53;;;;;;;14.91;80.69;96133.22;5135083;27;20432;-55
2022/10/10 02:49:56;;;;;;;0.50;0.40;;;;;;;14.81;81.53;96132.47;5135076;27;20428;-56
2022/10/10 02:52:25;;;;;;;0.60;0.40;;;;;;;14.69;83.09;96138.16;5134971;27;20425;-56
2022/10/10 02:54:53;;;;;;;1.10;0.40;;;;;;;14.47;84.70;96132.41;5135001;27;20430;-56
2022/10/10 02:57:21;;;;;;;0.57;0.43;;;;;;;14.59;84.32;96127.53;5134945;27;20465;-56
2022/10/10 02:59:49;;;;;;;0.40;0.30;;;;;;;14.42;86.03;96140.44;5133732;27;20418;-56
2022/10/10 03:02:18;;;;;;;0.40;0.30;;;;;;;14.48;84.48;96142.00;5135089;27;20808;-56
2022/10/10 03:04:47;;;;;;;1.03;0.30;;;;;;;14.33;85.70;96144.72;5135054;27;20426;-56
2022/10/10 03:07:16;;;;;;;0.60;0.60;;;;;;;14.41;84.32;96146.81;5134761;27;20434;-56
2022/10/10 03:09:44;;;;;;;0.53;0.50;;;;;;;14.43;83.96;96139.34;5134922;27;20458;-56
2022/10/10 03:12:12;;;;;;;0.40;0.40;;;;;;;14.41;83.74;96152.97;5134937;27;20453;-56
2022/10/10 03:14:41;;;;;;;0.60;0.57;;;;;;;14.42;82.83;96130.53;5134869;27;20430;-55
2022/10/10 03:17:09;;;;;;;0.50;0.40;;;;;;;14.47;83.47;96140.41;5134706;27;20468;-56
2022/10/10 03:19:38;;;;;;;4.53;0.40;;;;;;;14.50;83.45;96145.97;5134412;27;20428;-56
2022/10/10 03:22:07;;;;;;;0.60;0.40;;;;;;;14.55;83.07;96151.28;5134317;27;20926;-56
2022/10/10 03:24:36;;;;;;;0.40;0.30;;;;;;;14.52;82.44;96148.38;5134174;27;20484;-56
2022/10/10 03:27:04;;;;;;;0.40;0.30;;;;;;;14.54;83.01;96151.56;5134496;27;20778;-56
2022/10/10 03:29:32;;;;;;;0.40;0.20;;;;;;;14.52;82.47;96146.50;5134489;27;20426;-56
2022/10/10 03:32:01;;;;;;;0.60;0.30;;;;;;;14.12;83.83;96148.47;5134072;27;20438;-56
2022/10/10 03:34:29;;;;;;;11.33;0.40;;;;;;;13.71;89.50;96155.75;5133960;27;20421;-57
2022/10/10 03:36:57;;;;;;;0.50;0.40;;;;;;;14.04;86.75;96141.06;5133644;27;20429;-56
2022/10/10 03:39:27;;;;;;;0.70;0.30;;;;;;;14.15;85.39;96145.28;5133821;27;20465;-56
2022/10/10 03:41:55;;;;;;;0.60;0.60;;;;;;;14.30;83.30;96150.56;5134003;27;20502;-56
2022/10/10 03:44:24;;;;;;;0.40;0.30;;;;;;;14.30;89.18;96161.22;5134128;27;20434;-56
2022/10/10 03:46:52;;;;;;;0.50;0.30;;;;;;;13.90;89.69;96151.47;5134157;27;20441;-56
2022/10/10 03:49:20;;;;;;;0.70;0.40;;;;;;;13.78;91.08;96159.75;5133979;27;20431;-57
2022/10/10 03:51:49;;;;;;;0.43;0.40;;;;;;;13.51;95.35;96161.88;5133773;27;20433;-57
2022/10/10 03:54:17;;;;;;;0.73;0.50;;;;;;;13.28;98.53;96157.09;5133745;27;20422;-56
2022/10/10 03:56:48;;;;;;;1.43;0.87;;;;;;;12.52;100.00;96108.25;5133736;27;20821;-56
2022/10/10 03:59:16;;;;;;;0.50;0.50;;;;;;;13.19;100.00;96164.00;5133810;27;20477;-56
2022/10/10 04:01:44;;;;;;;0.60;0.50;;;;;;;13.57;95.18;96157.34;5133542;27;20804;-56
2022/10/10 04:04:13;;;;;;;0.60;0.40;;;;;;;13.76;92.75;96153.88;5133284;27;20829;-56
2022/10/10 04:06:41;;;;;;;2.80;0.67;;;;;;;13.84;92.31;96158.66;5133332;27;20440;-56
2022/10/10 04:09:09;;;;;;;0.40;0.30;;;;;;;13.71;91.66;96164.53;5133739;27;20422;-56
2022/10/10 04:11:39;;;;;;;0.50;0.40;;;;;;;13.64;93.14;96164.00;5133030;27;20437;-54
2022/10/10 04:14:09;;;;;;;0.43;0.43;;;;;;;13.04;100.00;96163.94;5133386;27;20432;-60
2022/10/10 04:16:37;;;;;;;0.60;0.60;;;;;;;13.36;99.96;96164.53;5133596;27;20487;-60
2022/10/10 04:19:06;;;;;;;1.50;0.80;;;;;;;13.52;96.04;96163.50;5133428;27;20498;-60
2022/10/10 04:21:34;;;;;;;2.00;0.50;;;;;;;13.06;95.44;96081.97;5133283;27;20440;-60
2022/10/10 04:24:03;;;;;;;0.83;0.83;;;;;;;13.52;96.02;96174.13;5133118;27;20477;-59
2022/10/10 04:26:31;;;;;;;0.50;0.50;;;;;;;13.51;94.41;96158.44;5133324;27;20437;-61
2022/10/10 04:28:59;;;;;;;0.40;0.30;;;;;;;13.85;92.13;96159.47;5132392;27;20422;-60
2022/10/10 04:31:29;;;;;;;2.93;0.30;;;;;;;13.94;90.10;96160.50;5133090;27;20437;-60
2022/10/10 04:33:57;;;;;;;0.90;0.70;;;;;;;14.04;89.66;96167.69;5133179;27;20418;-61
2022/10/10 04:36:26;;;;;;;0.53;0.40;;;;;;;13.97;89.00;96166.09;5132771;27;20434;-60
2022/10/10 04:38:54;;;;;;;0.70;0.70;;;;;;;13.92;89.69;96160.78;5132945;27;20472;-60
2022/10/10 04:41:22;;;;;;;0.83;0.83;;;;;;;14.02;89.45;96162.63;5132755;27;20430;-61
2022/10/10 04:43:50;;;;;;;0.50;0.40;;;;;;;14.13;90.15;96166.06;5132633;27;20803;-61
2022/10/10 04:46:19;;;;;;;0.53;0.50;;;;;;;14.10;88.17;96170.06;5132500;27;20434;-61
2022/10/10 04:48:48;;;;;;;1.13;0.87;;;;;;;13.80;89.26;96168.28;5132964;27;20434;-61
2022/10/10 04:51:17;;;;;;;0.60;0.40;;;;;;;13.97;88.20;96162.63;5133004;27;20432;-60
2022/10/10 04:53:45;;;;;;;1.03;1.03;;;;;;;14.06;86.97;96174.38;5132430;27;20444;-60
2022/10/10 04:56:17;;;;;;;0.67;0.50;;;;;;;14.02;87.35;96170.63;5132886;27;20470;-60
2022/10/10 04:58:45;;;;;;;0.93;0.60;;;;;;;14.10;87.23;96177.28;5132988;27;20472;-61
2022/10/10 05:01:14;;;;;;;0.50;0.50;;;;;;;14.23;85.97;96180.19;5132921;27;20426;-61
2022/10/10 05:03:42;;;;;;;0.47;0.40;;;;;;;14.10;88.67;96177.28;5132961;27;20437;-61
2022/10/10 05:06:12;;;;;;;1.43;0.63;;;;;;;13.47;95.11;96181.31;5133093;27;20894;-61
2022/10/10 05:08:40;;;;;;;0.40;0.40;;;;;;;13.07;100.00;96185.56;5132567;27;20454;-61
2022/10/10 05:11:11;;;;;;;6.27;0.97;;;;;;;12.81;100.00;96188.38;5132665;27;20457;-61
2022/10/10 05:13:39;;;;;;;1.00;1.00;;;;;;;12.88;100.00;96189.72;5132535;27;20425;-61
2022/10/10 05:16:07;;;;;;;3.50;0.97;;;;;;;12.82;100.00;96195.28;5132756;27;20811;-61
2022/10/10 05:18:38;;;;;;;1.27;1.27;;;;;;;12.59;100.00;96193.88;5132505;27;20476;-61
2022/10/10 05:21:06;;;;;;;1.40;1.37;;;;;;;12.34;100.00;96199.91;5132155;27;20430;-61
2022/10/10 05:23:36;;;;;;;1.20;1.10;;;;;;;12.32;100.00;96204.66;5134296;27;20480;-61
2022/10/10 05:26:05;;;;;;;2.20;2.03;;;;;;;12.37;100.00;96204.66;5136613;27;20460;-61
2022/10/10 05:28:35;;;;;;;6.83;1.50;;;;;;;12.14;100.00;96206.94;5136668;27;20422;-61
2022/10/10 05:31:05;;;;;;;0.93;0.93;;;;;;;12.40;100.00;96208.66;5136749;27;20434;-61
2022/10/10 05:33:33;;;;;;;9.10;1.83;;;;;;;12.61;100.00;96205.06;5136857;27;20507;-61
2022/10/10 05:36:04;;;;;;;1.63;0.57;;;;;;;13.10;99.76;96208.19;5136752;27;20442;-61
2022/10/10 05:38:32;;;;;;;2.20;0.97;;;;;;;13.50;94.04;96202.91;5136407;27;20413;-61
2022/10/10 05:41:03;;;;;;;1.37;0.87;;;;;;;13.52;90.30;96144.84;5136325;27;20449;-61
2022/10/10 05:43:31;;;;;;;0.47;0.30;;;;;;;14.14;87.94;96213.00;5136660;27;20433;-61
2022/10/10 05:45:59;;;;;;;0.97;0.97;;;;;;;14.06;88.36;96218.88;5136581;27;20444;-61
2022/10/10 05:48:27;;;;;;;0.50;0.40;;;;;;;14.70;85.44;96219.03;5136671;27;20421;-61
2022/10/10 05:50:57;;;;;;;0.80;0.70;;;;;;;14.81;84.62;96207.22;5136221;27;20439;-61
2022/10/10 05:53:27;;;;;;;3.77;0.50;;;;;;;14.72;82.74;96182.19;5136014;27;20433;-60
2022/10/10 05:55:55;;;;;;;1.57;1.20;;;;;;;14.72;84.27;96214.19;5136473;27;20445;-61
2022/10/10 05:58:26;;;;;;;1.10;1.10;;;;;;;14.64;85.45;96204.91;5135930;27;20435;-61
2022/10/10 06:00:54;;;;;;;1.00;0.70;;;;;;;14.45;87.21;96212.69;5135836;27;20485;-61
2022/10/10 06:03:23;;;;;;;1.43;1.33;;;;;;;14.71;88.57;96223.25;5136276;27;20414;-61
2022/10/10 06:05:52;;;;;;;0.60;0.60;;;;;;;14.87;85.48;96198.13;5135740;27;20854;-61
2022/10/10 06:08:20;;;;;;;5.70;0.60;;;;;;;15.44;82.99;96218.88;5136025;27;20425;-62
2022/10/10 06:10:49;;;;;;;0.60;0.60;;;;;;;15.68;81.14;96228.63;5135900;27;20949;-63
2022/10/10 06:13:19;;;;;;;0.70;0.70;;;;;;;15.88;80.03;96227.69;5142225;27;20420;-61
2022/10/10 06:15:53;;;;;;;1.20;1.20;;;;;;;16.02;77.61;96220.59;5135695;27;20422;-61
2022/10/10 06:18:22;;;;;;;1.33;1.23;;;;;;;16.17;76.87;96236.50;5135781;27;20434;-61
2022/10/10 06:20:50;;;;;;;0.67;0.67;;;;;;;16.94;74.60;96227.41;5135851;27;20485;-61
2022/10/10 06:23:19;;;;;;;0.60;0.53;;;;;;;17.90;70.70;96236.78;5135598;27;20436;-60
2022/10/10 06:25:47;;;;;;;0.60;0.40;;;;;;;17.53;71.05;96239.50;5135358;27;20929;-56
2022/10/10 06:28:15;;;;;;;1.97;1.77;;;;;;;18.65;70.88;96223.94;5135655;27;20434;-56
2022/10/10 06:30:47;;;;;;;0.50;0.30;;;;;;;19.54;64.89;96235.00;5135219;27;20506;-56
2022/10/10 06:33:18;;;;;;;0.53;0.40;;;;;;;19.94;63.14;96231.38;5135317;27;20942;-55
2022/10/10 06:35:48;;;;;;;0.50;0.37;;;;;;;20.26;61.81;96233.06;5135249;27;20549;-55
2022/10/10 06:38:17;;;;;;;0.70;0.50;;;;;;;19.87;61.40;96236.38;5134746;27;20426;-56
2022/10/10 06:40:46;;;;;;;2.17;0.50;;;;;;;20.06;62.06;96234.28;5135160;27;20485;-56
2022/10/10 06:43:16;;;;;;;0.97;0.93;;;;;;;19.97;61.01;96236.16;5134875;27;20430;-55
2022/10/10 06:45:46;;;;;;;0.87;0.87;;;;;;;19.71;61.14;96234.38;5135184;27;20436;-55
2022/10/10 06:48:16;;;;;;;0.70;0.70;;;;;;;19.67;61.06;96236.88;5133839;27;20424;-54
2022/10/10 06:50:55;;;;;;;2.47;1.87;;;;;;;19.93;61.87;96240.56;5134997;27;20427;-53
2022/10/10 06:53:24;;;;;;;1.10;1.00;;;;;;;20.12;61.04;96235.78;5134147;27;20758;-53
2022/10/10 06:55:53;;;;;;;0.73;0.60;;;;;;;20.70;60.18;96229.44;5134969;27;20428;-54
2022/10/10 06:58:21;;;;;;;0.73;0.60;;;;;;;20.52;59.43;96235.84;5134716;27;20429;-55
2022/10/10 07:00:51;;;;;;;0.60;0.60;;;;;;;21.30;57.82;96230.44;5134545;27;20471;-54
2022/10/10 07:03:21;;;;;;;0.70;0.47;;;;;;;20.90;57.71;96229.69;5134537;27;20435;-55
2022/10/10 07:05:51;;;;;;;1.63;1.53;;;;;;;20.52;58.42;96227.78;5134987;27;20430;-54
2022/10/10 07:08:20;;;;;;;0.80;0.57;;;;;;;20.77;57.61;96238.66;5134552;27;20493;-54
2022/10/10 07:10:48;;;;;;;0.70;0.60;;;;;;;21.87;55.06;96225.75;5134482;27;20439;-53
2022/10/10 07:13:17;;;;;;;2.83;0.50;;;;;;;22.96;53.72;96218.03;5134008;27;20921;-52
2022/10/10 07:15:45;;;;;;;1.07;0.97;;;;;;;22.97;52.31;96209.56;5134850;27;20859;-52
2022/10/10 07:18:14;;;;;;;2.20;0.83;;;;;;;23.63;51.30;96199.78;5134640;27;20919;-53
2022/10/10 07:20:44;;;;;;;2.00;0.73;;;;;;;23.41;50.72;96205.53;5134614;27;20463;-53
2022/10/10 07:23:12;;;;;;;1.07;0.97;;;;;;;23.12;51.27;96205.53;5133905;27;20423;-53
2022/10/10 07:25:43;;;;;;;0.80;0.80;;;;;;;22.36;52.74;96200.13;5134141;27;20438;-53
2022/10/10 07:28:11;;;;;;;1.80;0.70;;;;;;;22.37;53.40;96204.38;5134397;27;20435;-53
2022/10/10 07:30:42;;;;;;;0.60;0.43;;;;;;;22.43;52.77;96205.81;5134262;27;20415;-54
2022/10/10 07:33:12;;;;;;;0.87;0.73;;;;;;;22.91;51.49;96204.69;5134044;27;20808;-54
2022/10/10 07:35:40;;;;;;;1.27;1.27;;;;;;;22.25;51.88;96125.94;5134145;27;20434;-53
2022/10/10 07:38:11;;;;;;;0.90;0.90;;;;;;;23.28;50.90;96188.41;5133470;27;20450;-53
2022/10/10 07:40:40;;;;;;;0.67;0.67;;;;;;;23.56;51.17;96198.72;5133691;27;20467;-53
2022/10/10 07:43:08;;;;;;;0.70;0.60;;;;;;;24.79;48.99;96197.72;5133698;27;20431;-53
2022/10/10 07:45:37;;;;;;;0.77;0.77;;;;;;;24.82;47.43;96196.25;5133211;27;20431;-51
2022/10/10 07:48:05;;;;;;;2.53;2.40;;;;;;;24.40;48.97;96201.00;5133532;27;20441;-51
2022/10/10 07:50:34;;;;;;;1.07;1.07;;;;;;;24.90;48.19;96196.13;5133786;27;20431;-51
2022/10/10 07:53:02;;;;;;;0.50;0.50;;;;;;;26.59;45.16;96185.91;5133623;27;20423;-51
2022/10/10 07:55:31;;;;;;;0.87;0.87;;;;;;;25.49;45.46;96192.94;5133730;27;20911;-51
2022/10/10 07:58:02;;;;;;;1.20;0.90;;;;;;;24.87;46.71;96194.09;5133583;27;20420;-51
2022/10/10 08:00:32;;;;;;;1.70;0.50;;;;;;;25.63;45.64;96191.41;5133405;27;20574;-50
2022/10/10 08:03:00;;;;;;;0.43;0.40;;;;;;;25.86;44.83;96213.41;5133467;27;20454;-50
2022/10/10 08:05:29;;;;;;;0.40;0.30;;;;;;;26.59;43.59;96202.22;5133627;27;20426;-51
2022/10/10 08:07:57;;;;;;;0.70;0.60;;;;;;;26.74;42.99;96202.22;5133744;27;20441;-51
2022/10/10 08:10:27;;;;;;;0.93;0.93;;;;;;;27.19;43.24;96199.06;5133731;27;20427;-51
2022/10/10 08:12:57;;;;;;;0.80;0.50;;;;;;;27.33;41.84;96187.69;5133498;27;20934;-52
2022/10/10 08:15:25;;;;;;;0.77;0.70;;;;;;;27.23;41.72;96191.75;5133613;27;20435;-51
2022/10/10 08:18:01;;;;;;;0.40;0.30;;;;;;;27.60;40.34;96176.66;5133263;27;20419;-52
2022/10/10 08:20:29;;;;;;;0.63;0.63;;;;;;;27.78;40.75;96178.97;5133151;27;20462;-51
2022/10/10 08:22:57;;;;;;;1.00;1.00;;;;;;;28.07;40.94;96192.03;5133251;27;20443;-51
2022/10/10 08:25:26;;;;;;;0.60;0.50;;;;;;;27.45;42.22;96193.06;5132865;27;20554;-51
2022/10/10 08:27:56;;;;;;;0.70;0.70;;;;;;;25.84;42.31;96085.31;5132359;27;20434;-51
2022/10/10 08:30:24;;;;;;;0.70;0.70;;;;;;;26.34;41.60;96190.69;5132574;27;20437;-51
2022/10/10 08:32:52;;;;;;;0.70;0.70;;;;;;;26.03;42.10;96185.16;5132946;27;20487;-51
2022/10/10 08:35:21;;;;;;;1.43;1.33;;;;;;;27.30;41.65;96183.75;5132807;27;20427;-51
2022/10/10 08:37:49;;;;;;;0.90;0.50;;;;;;;28.67;39.90;96176.81;5132982;27;20427;-51
2022/10/10 08:40:20;;;;;;;0.60;0.53;;;;;;;27.89;40.38;96174.53;5133239;27;20426;-51
2022/10/10 08:42:54;;;;;;;0.50;0.40;;;;;;;28.94;38.69;96173.75;5132900;27;20488;-51
2022/10/10 08:45:27;;;;;;;0.50;0.40;;;;;;;29.45;38.49;96170.63;5133112;27;20422;-51
2022/10/10 08:47:59;;;;;;;0.77;0.77;;;;;;;29.67;36.73;96174.44;5133384;27;20441;-51
2022/10/10 08:50:31;;;;;;;0.50;0.40;;;;;;;28.53;38.55;96171.88;5132657;27;20949;-52
2022/10/10 08:53:03;;;;;;;0.60;0.37;;;;;;;28.77;37.59;96170.72;5132889;27;20446;-51
2022/10/10 08:55:34;;;;;;;1.13;1.03;;;;;;;28.90;38.44;96159.28;5132770;27;20422;-51
2022/10/10 08:58:06;;;;;;;0.70;0.70;;;;;;;29.28;37.25;96161.03;5131889;27;20822;-51
2022/10/10 09:00:39;;;;;;;0.70;0.63;;;;;;;28.83;37.58;96163.81;5132724;27;20470;-51
2022/10/10 09:03:19;;;;;;;11.03;0.47;;;;;;;27.88;39.01;96162.06;5132142;27;20948;-51
2022/10/10 09:06:01;;;;;;;0.60;0.60;;;;;;;28.51;38.69;96157.03;5132782;27;20427;-52
2022/10/10 09:08:44;;;;;;;0.83;0.83;;;;;;;29.14;38.46;96147.16;5132326;27;20465;-52
2022/10/10 09:11:24;;;;;;;0.70;0.57;;;;;;;30.11;37.03;96148.84;5132718;27;20419;-52
2022/10/10 09:14:04;;;;;;;0.80;0.80;;;;;;;28.82;37.68;96162.25;5132810;27;20423;-51
2022/10/10 09:16:40;;;;;;;0.60;0.60;;;;;;;29.12;38.33;96152.19;5132296;27;20426;-51
2022/10/10 09:19:23;;;;;;;0.40;0.30;;;;;;;28.16;39.21;96157.97;5132322;27;20422;-51
2022/10/10 09:21:58;;;;;;;0.67;0.40;;;;;;;29.23;38.43;96152.38;5132666;27;21030;-51
2022/10/10 09:24:32;;;;;;;0.67;0.67;;;;;;;28.39;37.90;96068.00;5132338;27;20488;-51
2022/10/10 09:27:04;;;;;;;1.53;1.03;;;;;;;27.52;38.36;96030.63;5132477;27;20419;-53
2022/10/10 09:29:37;;;;;;;1.23;0.67;;;;;;;28.61;38.72;96143.59;5132742;27;20444;-53
2022/10/10 09:32:13;;;;;;;0.40;0.40;;;;;;;29.12;38.56;96143.22;5132427;27;20430;-52
2022/10/10 09:34:45;;;;;;;4.53;0.80;;;;;;;28.70;38.18;96146.88;5132362;27;20483;-52
2022/10/10 09:37:17;;;;;;;0.73;0.73;;;;;;;28.54;39.13;96137.22;5132537;27;20945;-53
2022/10/10 09:40:12;;;;;;;0.60;0.60;;;;;;;28.25;39.68;96144.09;5132176;27;20977;-53
2022/10/10 09:42:43;;;;;;;0.80;0.80;;;;;;;26.63;41.40;96144.06;5132215;27;20477;-54
2022/10/10 09:45:16;;;;;;;0.50;0.50;;;;;;;26.69;41.99;96144.59;5132161;27;20433;-54
2022/10/10 09:47:48;;;;;;;2.50;0.73;;;;;;;27.63;41.20;96142.47;5132158;27;20769;-53
2022/10/10 09:50:17;;;;;;;0.40;0.40;;;;;;;28.43;39.50;96079.75;5132234;27;20422;-53
2022/10/10 09:52:47;;;;;;;3.13;0.53;;;;;;;28.58;38.63;96127.94;5132111;27;20443;-53
2022/10/10 09:55:22;;;;;;;0.43;0.33;;;;;;;29.46;37.94;96129.31;5132144;27;20422;-53
2022/10/10 09:57:53;;;;;;;0.50;0.40;;;;;;;30.31;37.58;96119.34;5131990;27;20427;-52
2022/10/10 10:00:28;;;;;;;0.80;0.80;;;;;;;30.15;36.40;96118.81;5132011;27;20426;-52
2022/10/10 10:03:12;;;;;;;0.57;0.47;;;;;;;31.43;35.75;96110.44;5132158;27;20468;-53
2022/10/10 10:05:43;;;;;;;0.60;0.40;;;;;;;32.18;34.84;96104.09;5132162;27;20430;-52
2022/10/10 10:08:26;;;;;;;0.63;0.60;;;;;;;30.03;36.03;96111.63;5131956;27;20419;-53
2022/10/10 10:10:57;;;;;;;0.53;0.53;;;;;;;29.40;37.04;96111.66;5135563;27;20445;-52
2022/10/10 10:13:30;;;;;;;0.40;0.30;;;;;;;28.64;37.88;96110.13;5136274;27;20851;-53
2022/10/10 10:16:10;;;;;;;0.70;0.70;;;;;;;27.94;40.05;96119.72;5136032;27;20457;-53
2022/10/10 10:18:42;;;;;;;0.60;0.40;;;;;;;27.95;38.99;96097.59;5135490;27;20644;-53
2022/10/10 10:21:22;;;;;;;0.53;0.40;;;;;;;27.92;39.54;96101.03;5135472;27;20425;-53
2022/10/10 10:23:54;;;;;;;0.40;0.40;;;;;;;28.48;38.71;96103.19;5135428;27;20473;-53
2022/10/10 10:26:26;;;;;;;0.70;0.70;;;;;;;28.56;39.04;96107.63;5135585;27;20429;-53
2022/10/10 10:28:56;;;;;;;0.60;0.50;;;;;;;28.03;39.84;96110.19;5135888;27;20429;-53
2022/10/10 10:31:52;;;;;;;0.40;0.40;;;;;;;28.09;39.68;96100.59;5135384;27;20457;-53
2022/10/10 10:34:42;;;;;;;0.83;0.40;;;;;;;27.43;39.46;96102.75;5135138;27;20425;-54
2022/10/10 10:37:19;;;;;;;1.23;0.70;;;;;;;27.40;39.99;96092.59;5135207;27;20433;-54
2022/10/10 10:40:09;;;;;;;0.43;0.30;;;;;;;26.48;41.34;96082.31;5135134;27;20434;-54
2022/10/10 10:43:00;;;;;;;0.63;0.40;;;;;;;26.46;41.83;96095.47;5135303;27;20475;-54
2022/10/10 10:45:37;;;;;;;0.40;0.40;;;;;;;27.20;40.24;96061.81;5135336;27;20852;-54
2022/10/10 10:48:20;;;;;;;0.50;0.50;;;;;;;28.03;39.49;96085.66;5135018;27;20513;-54
2022/10/10 10:50:54;;;;;;;0.60;0.60;;;;;;;27.04;39.05;95930.47;5134843;27;20422;-54
2022/10/10 10:53:31;;;;;;;0.70;0.50;;;;;;;28.52;38.28;96084.94;5134960;27;21113;-55
2022/10/10 10:56:14;;;;;;;0.50;0.40;;;;;;;28.57;37.97;96076.44;5134857;27;20438;-54
2022/10/10 10:59:00;;;;;;;0.50;0.50;;;;;;;27.93;38.68;96042.63;5134936;27;20418;-55
2022/10/10 11:01:56;;;;;;;1.43;1.13;;;;;;;27.24;40.13;96064.63;5134601;27;20527;-54
2022/10/10 11:04:55;;;;;;;0.40;0.30;;;;;;;25.86;42.37;96064.00;5135210;27;20900;-56
2022/10/10 11:07:57;;;;;;;0.67;0.50;;;;;;;26.01;41.65;96003.47;5134454;27;20455;-56
2022/10/10 11:10:37;;;;;;;0.90;0.50;;;;;;;25.97;42.10;96015.41;5134739;27;20445;-55
2022/10/10 11:13:19;;;;;;;0.40;0.40;;;;;;;26.51;41.31;96015.56;5134415;27;20523;-56
2022/10/10 11:15:53;;;;;;;1.73;0.63;;;;;;;26.94;41.18;96042.59;5134737;27;20883;-55
2022/10/10 11:18:38;;;;;;;1.23;0.93;;;;;;;26.55;41.96;96043.63;5134706;27;20503;-55
2022/10/10 11:21:14;;;;;;;0.47;0.40;;;;;;;27.89;40.46;96044.53;5133350;27;20433;-55
2022/10/10 11:23:49;;;;;;;0.40;0.30;;;;;;;28.22;39.64;96036.56;5134211;27;20494;-55
2022/10/10 11:26:22;;;;;;;0.60;0.50;;;;;;;28.61;38.37;95998.22;5134039;27;20453;-55
2022/10/10 11:28:54;;;;;;;0.53;0.53;;;;;;;27.97;39.42;96026.34;5134142;27;20438;-54
2022/10/10 11:31:26;;;;;;;0.50;0.40;;;;;;;28.50;38.97;96022.59;5134355;27;20422;-55
2022/10/10 11:34:01;;;;;;;0.50;0.40;;;;;;;27.30;39.11;95925.13;5134247;27;20419;-55
2022/10/10 11:36:32;;;;;;;0.80;0.80;;;;;;;28.49;39.51;96001.16;5134456;27;20417;-55
2022/10/10 11:39:05;;;;;;;0.47;0.43;;;;;;;28.05;38.76;96009.00;5134227;27;20446;-56
2022/10/10 11:41:39;;;;;;;0.60;0.50;;;;;;;27.78;39.67;96021.72;5134157;27;20453;-55
2022/10/10 11:44:16;;;;;;;1.00;0.60;;;;;;;28.17;39.74;96011.53;5133759;27;20431;-55
2022/10/10 11:46:50;;;;;;;0.80;0.80;;;;;;;28.40;38.69;96011.50;5134140;27;20422;-56
2022/10/10 11:49:25;;;;;;;0.93;0.70;;;;;;;28.18;39.01;96004.94;5133959;27;20504;-55
2022/10/10 11:52:18;;;;;;;0.53;0.53;;;;;;;28.20;38.91;96002.63;5132996;27;20431;-55
2022/10/10 11:55:10;;;;;;;0.60;0.60;;;;;;;28.77;40.78;95983.25;5133915;27;20507;-55